sensor_id;sensor_type;location;lat;lon;timestamp;pressure;altitude;pressure_sealevel;temperature;humidity
72921;BME280;61064;51.654;5.476;2022-08-20T00:00:28;101558.28;;;20.35;82.52
72921;BME280;61064;51.654;5.476;2022-08-20T00:02:56;101560.84;;;20.41;82.62
72921;BME280;61064;51.654;5.476;2022-08-20T00:05:31;101518.16;;;20.17;82.49
72921;BME280;61064;51.654;5.476;2022-08-20T00:07:57;101561.75;;;20.42;82.58
72921;BME280;61064;51.654;5.476;2022-08-20T00:10:24;101551.03;;;20.37;82.56
72921;BME280;61064;51.654;5.476;2022-08-20T00:12:50;101544.81;;;20.33;82.79
72921;BME280;61064;51.654;5.476;2022-08-20T00:15:20;101525.25;;;20.21;82.86
72921;BME280;61064;51.654;5.476;2022-08-20T00:17:47;101516.28;;;20.19;82.85
72921;BME280;61064;51.654;5.476;2022-08-20T00:20:15;101558.16;;;20.40;82.96
72921;BME280;61064;51.654;5.476;2022-08-20T00:22:41;101511.91;;;20.13;83.06
72921;BME280;61064;51.654;5.476;2022-08-20T00:25:08;101558.16;;;20.40;82.98
72921;BME280;61064;51.654;5.476;2022-08-20T00:27:34;101548.38;;;20.34;83.13
72921;BME280;61064;51.654;5.476;2022-08-20T00:30:01;101515.47;;;20.15;83.04
72921;BME280;61064;51.654;5.476;2022-08-20T00:32:27;101552.94;;;20.33;83.58
72921;BME280;61064;51.654;5.476;2022-08-20T00:34:52;101553.78;;;20.36;83.39
72921;BME280;61064;51.654;5.476;2022-08-20T00:37:17;101511.94;;;20.12;83.45
72921;BME280;61064;51.654;5.476;2022-08-20T00:39:43;101529.75;;;20.22;83.39
72921;BME280;61064;51.654;5.476;2022-08-20T00:42:09;101544.03;;;20.27;83.47
72921;BME280;61064;51.654;5.476;2022-08-20T00:44:35;101529.69;;;20.23;83.53
72921;BME280;61064;51.654;5.476;2022-08-20T00:47:00;101542.16;;;20.32;83.38
72921;BME280;61064;51.654;5.476;2022-08-20T00:49:28;101551.06;;;20.36;83.57
72921;BME280;61064;51.654;5.476;2022-08-20T00:52:18;101548.34;;;20.37;83.54
72921;BME280;61064;51.654;5.476;2022-08-20T00:54:58;101509.28;;;20.10;83.56
72921;BME280;61064;51.654;5.476;2022-08-20T00:57:40;101534.16;;;20.26;83.60
72921;BME280;61064;51.654;5.476;2022-08-20T01:00:18;101552.84;;;20.37;83.53
72921;BME280;61064;51.654;5.476;2022-08-20T01:02:46;101557.34;;;20.38;83.55
72921;BME280;61064;51.654;5.476;2022-08-20T01:05:12;101535.06;;;20.25;83.65
72921;BME280;61064;51.654;5.476;2022-08-20T01:07:40;101543.03;;;20.31;83.80
72921;BME280;61064;51.654;5.476;2022-08-20T01:10:13;101544.81;;;20.33;83.79
72921;BME280;61064;51.654;5.476;2022-08-20T01:12:42;101536.81;;;20.27;83.81
72921;BME280;61064;51.654;5.476;2022-08-20T01:15:10;101549.28;;;20.34;83.86
72921;BME280;61064;51.654;5.476;2022-08-20T01:17:40;101536.75;;;20.29;83.91
72921;BME280;61064;51.654;5.476;2022-08-20T01:20:16;101552.84;;;20.37;83.94
72921;BME280;61064;51.654;5.476;2022-08-20T01:22:58;101551.06;;;20.36;84.01
72921;BME280;61064;51.654;5.476;2022-08-20T01:28:58;101547.47;;;20.35;83.90
72921;BME280;61064;51.654;5.476;2022-08-20T01:31:29;101553.78;;;20.36;83.96
72921;BME280;61064;51.654;5.476;2022-08-20T01:33:57;101539.53;;;20.27;84.03
72921;BME280;61064;51.654;5.476;2022-08-20T01:36:28;101556.47;;;20.36;84.26
72921;BME280;61064;51.654;5.476;2022-08-20T01:38:56;101558.34;;;20.33;84.35
72921;BME280;61064;51.654;5.476;2022-08-20T01:41:44;101552.88;;;20.35;84.28
72921;BME280;61064;51.654;5.476;2022-08-20T01:44:11;101543.94;;;20.30;84.08
72921;BME280;61064;51.654;5.476;2022-08-20T01:46:40;101551.97;;;20.36;84.24
72921;BME280;61064;51.654;5.476;2022-08-20T01:49:12;101540.47;;;20.25;84.35
72921;BME280;61064;51.654;5.476;2022-08-20T01:51:38;101553.78;;;20.34;84.23
72921;BME280;61064;51.654;5.476;2022-08-20T01:54:05;101544.88;;;20.29;84.22
72921;BME280;61064;51.654;5.476;2022-08-20T01:56:32;101530.72;;;20.18;84.48
72921;BME280;61064;51.654;5.476;2022-08-20T01:59:02;101559.19;;;20.34;84.20
72921;BME280;61064;51.654;5.476;2022-08-20T02:01:37;101556.53;;;20.31;84.27
72921;BME280;61064;51.654;5.476;2022-08-20T02:04:06;101548.53;;;20.28;84.39
72921;BME280;61064;51.654;5.476;2022-08-20T02:06:42;101525.50;;;20.10;84.31
72921;BME280;61064;51.654;5.476;2022-08-20T02:09:08;101526.34;;;20.12;84.29
72921;BME280;61064;51.654;5.476;2022-08-20T02:11:35;101555.75;;;20.27;84.47
72921;BME280;61064;51.654;5.476;2022-08-20T02:14:03;101560.19;;;20.28;84.44
72921;BME280;61064;51.654;5.476;2022-08-20T02:16:35;101569.19;;;20.29;84.52
72921;BME280;61064;51.654;5.476;2022-08-20T02:19:15;101554.91;;;20.24;84.37
72921;BME280;61064;51.654;5.476;2022-08-20T02:21:44;101545.97;;;20.20;84.51
72921;BME280;61064;51.654;5.476;2022-08-20T02:24:11;101563.84;;;20.27;84.40
72921;BME280;61064;51.654;5.476;2022-08-20T02:26:37;101544.16;;;20.22;84.43
72921;BME280;61064;51.654;5.476;2022-08-20T02:29:06;101548.69;;;20.20;84.57
72921;BME280;61064;51.654;5.476;2022-08-20T02:31:32;101547.81;;;20.18;84.51
72921;BME280;61064;51.654;5.476;2022-08-20T02:34:00;101545.16;;;20.17;84.64
72921;BME280;61064;51.654;5.476;2022-08-20T02:36:26;101520.31;;;20.00;84.63
72921;BME280;61064;51.654;5.476;2022-08-20T02:38:57;101562.16;;;20.22;84.70
72921;BME280;61064;51.654;5.476;2022-08-20T02:41:22;101553.22;;;20.18;84.60
72921;BME280;61064;51.654;5.476;2022-08-20T02:43:48;101559.47;;;20.22;84.62
72921;BME280;61064;51.654;5.476;2022-08-20T02:46:15;101547.03;;;20.13;84.85
72921;BME280;61064;51.654;5.476;2022-08-20T02:48:43;101571.19;;;20.21;84.76
72921;BME280;61064;51.654;5.476;2022-08-20T02:51:09;101540.94;;;20.04;84.83
72921;BME280;61064;51.654;5.476;2022-08-20T02:53:36;101553.34;;;20.12;84.83
72921;BME280;61064;51.654;5.476;2022-08-20T02:56:09;101572.09;;;20.21;84.87
72921;BME280;61064;51.654;5.476;2022-08-20T02:58:36;101556.00;;;20.15;84.55
72921;BME280;61064;51.654;5.476;2022-08-20T03:01:05;101560.44;;;20.18;84.70
72921;BME280;61064;51.654;5.476;2022-08-20T03:03:32;101554.25;;;20.13;84.67
72921;BME280;61064;51.654;5.476;2022-08-20T03:05:58;101546.31;;;20.05;84.62
72921;BME280;61064;51.654;5.476;2022-08-20T03:08:25;101560.50;;;20.16;84.73
72921;BME280;61064;51.654;5.476;2022-08-20T03:10:52;101559.69;;;20.11;84.84
72921;BME280;61064;51.654;5.476;2022-08-20T03:13:21;101569.53;;;20.14;84.81
72921;BME280;61064;51.654;5.476;2022-08-20T03:15:58;101551.72;;;20.05;84.68
72921;BME280;61064;51.654;5.476;2022-08-20T03:18:27;101558.81;;;20.11;84.75
72921;BME280;61064;51.654;5.476;2022-08-20T03:20:54;101564.22;;;20.09;84.74
72921;BME280;61064;51.654;5.476;2022-08-20T03:23:20;101559.75;;;20.08;84.77
72921;BME280;61064;51.654;5.476;2022-08-20T03:25:46;101542.00;;;19.95;84.79
72921;BME280;61064;51.654;5.476;2022-08-20T03:28:12;101559.91;;;20.01;84.83
72921;BME280;61064;51.654;5.476;2022-08-20T03:30:38;101557.19;;;20.01;84.96
72921;BME280;61064;51.654;5.476;2022-08-20T03:33:04;101570.69;;;20.02;84.98
72921;BME280;61064;51.654;5.476;2022-08-20T03:35:32;101570.69;;;20.02;84.85
72921;BME280;61064;51.654;5.476;2022-08-20T03:37:58;101567.19;;;19.97;84.84
72921;BME280;61064;51.654;5.476;2022-08-20T03:40:28;101580.66;;;19.99;84.89
72921;BME280;61064;51.654;5.476;2022-08-20T03:42:55;101568.16;;;19.95;84.88
72921;BME280;61064;51.654;5.476;2022-08-20T03:45:22;101578.88;;;19.98;84.96
72921;BME280;61064;51.654;5.476;2022-08-20T03:47:48;101572.72;;;19.91;84.83
72921;BME280;61064;51.654;5.476;2022-08-20T03:50:14;101565.59;;;19.88;84.96
72921;BME280;61064;51.654;5.476;2022-08-20T03:52:40;101560.31;;;19.81;84.91
72921;BME280;61064;51.654;5.476;2022-08-20T03:55:08;101559.41;;;19.82;84.82
72921;BME280;61064;51.654;5.476;2022-08-20T03:57:34;101559.34;;;19.85;84.91
72921;BME280;61064;51.654;5.476;2022-08-20T04:00:00;101584.28;;;19.98;84.91
72921;BME280;61064;51.654;5.476;2022-08-20T04:02:26;101545.91;;;19.82;85.00
72921;BME280;61064;51.654;5.476;2022-08-20T04:04:53;101520.19;;;19.63;84.94
72921;BME280;61064;51.654;5.476;2022-08-20T04:07:23;101570.94;;;19.90;85.12
72921;BME280;61064;51.654;5.476;2022-08-20T04:09:54;101582.47;;;20.00;84.91
72921;BME280;61064;51.654;5.476;2022-08-20T04:12:21;101542.47;;;19.74;84.93
72921;BME280;61064;51.654;5.476;2022-08-20T04:14:48;101580.78;;;19.94;84.90
72921;BME280;61064;51.654;5.476;2022-08-20T04:17:15;101584.44;;;19.90;84.96
72921;BME280;61064;51.654;5.476;2022-08-20T04:19:41;101592.50;;;19.93;85.04
72921;BME280;61064;51.654;5.476;2022-08-20T04:22:07;101588.91;;;19.92;84.99
72921;BME280;61064;51.654;5.476;2022-08-20T04:24:33;101570.31;;;19.76;85.02
72921;BME280;61064;51.654;5.476;2022-08-20T04:27:00;101599.69;;;19.92;85.00
72921;BME280;61064;51.654;5.476;2022-08-20T04:29:27;101581.94;;;19.81;84.99
72921;BME280;61064;51.654;5.476;2022-08-20T04:31:53;101589.09;;;19.83;85.02
72921;BME280;61064;51.654;5.476;2022-08-20T04:34:18;101574.94;;;19.71;84.88
72921;BME280;61064;51.654;5.476;2022-08-20T04:36:45;101566.13;;;19.61;84.80
72921;BME280;61064;51.654;5.476;2022-08-20T04:39:17;101593.66;;;19.78;84.88
72921;BME280;61064;51.654;5.476;2022-08-20T04:41:42;101566.06;;;19.63;84.94
72921;BME280;61064;51.654;5.476;2022-08-20T04:44:09;101606.25;;;19.79;84.98
72921;BME280;61064;51.654;5.476;2022-08-20T04:46:37;101595.53;;;19.75;84.96
72921;BME280;61064;51.654;5.476;2022-08-20T04:49:03;101613.50;;;19.77;84.94
72921;BME280;61064;51.654;5.476;2022-08-20T04:51:30;101617.09;;;19.78;85.05
72921;BME280;61064;51.654;5.476;2022-08-20T04:53:56;101617.16;;;19.73;84.97
72921;BME280;61064;51.654;5.476;2022-08-20T04:56:24;101606.56;;;19.64;85.01
72921;BME280;61064;51.654;5.476;2022-08-20T04:58:52;101613.75;;;19.64;84.92
72921;BME280;61064;51.654;5.476;2022-08-20T05:01:17;101620.97;;;19.63;85.06
72921;BME280;61064;51.654;5.476;2022-08-20T05:03:43;101624.56;;;19.62;85.06
72921;BME280;61064;51.654;5.476;2022-08-20T05:06:09;101637.06;;;19.69;85.08
72921;BME280;61064;51.654;5.476;2022-08-20T05:08:36;101633.47;;;19.67;85.03
72921;BME280;61064;51.654;5.476;2022-08-20T05:11:03;101613.94;;;19.55;85.05
72921;BME280;61064;51.654;5.476;2022-08-20T05:13:29;101625.63;;;19.55;84.90
72921;BME280;61064;51.654;5.476;2022-08-20T05:15:55;101623.88;;;19.51;84.96
72921;BME280;61064;51.654;5.476;2022-08-20T05:18:23;101634.63;;;19.54;85.16
72921;BME280;61064;51.654;5.476;2022-08-20T05:20:49;101626.69;;;19.43;84.93
72921;BME280;61064;51.654;5.476;2022-08-20T05:23:17;101632.09;;;19.45;85.03
72921;BME280;61064;51.654;5.476;2022-08-20T05:25:44;101645.47;;;19.51;85.04
72921;BME280;61064;51.654;5.476;2022-08-20T05:28:19;101629.44;;;19.40;84.95
72921;BME280;61064;51.654;5.476;2022-08-20T05:30:47;101638.41;;;19.44;85.04
72921;BME280;61064;51.654;5.476;2022-08-20T05:33:13;101632.22;;;19.37;84.98
72921;BME280;61064;51.654;5.476;2022-08-20T05:35:41;101646.50;;;19.44;84.98
72921;BME280;61064;51.654;5.476;2022-08-20T05:38:11;101659.97;;;19.45;85.05
72921;BME280;61064;51.654;5.476;2022-08-20T05:40:38;101643.91;;;19.36;84.84
72921;BME280;61064;51.654;5.476;2022-08-20T05:43:04;101646.59;;;19.38;84.88
72921;BME280;61064;51.654;5.476;2022-08-20T05:45:31;101659.13;;;19.40;84.86
72921;BME280;61064;51.654;5.476;2022-08-20T05:47:57;101627.03;;;19.24;84.84
72921;BME280;61064;51.654;5.476;2022-08-20T05:50:23;101652.91;;;19.35;85.18
72921;BME280;61064;51.654;5.476;2022-08-20T05:52:49;101648.47;;;19.33;85.14
72921;BME280;61064;51.654;5.476;2022-08-20T05:55:15;101616.41;;;19.15;85.09
72921;BME280;61064;51.654;5.476;2022-08-20T05:57:41;101650.31;;;19.31;84.93
72921;BME280;61064;51.654;5.476;2022-08-20T06:00:09;101669.91;;;19.42;85.06
72921;BME280;61064;51.654;5.476;2022-08-20T06:02:35;101631.59;;;19.20;84.93
72921;BME280;61064;51.654;5.476;2022-08-20T06:05:19;101660.03;;;19.39;85.04
72921;BME280;61064;51.654;5.476;2022-08-20T06:07:44;101667.16;;;19.46;85.13
72921;BME280;61064;51.654;5.476;2022-08-20T06:10:11;101672.34;;;19.59;85.20
72921;BME280;61064;51.654;5.476;2022-08-20T06:12:37;101664.16;;;19.63;85.01
72921;BME280;61064;51.654;5.476;2022-08-20T06:15:05;101643.59;;;19.56;84.90
72921;BME280;61064;51.654;5.476;2022-08-20T06:17:31;101671.13;;;19.76;84.86
72921;BME280;61064;51.654;5.476;2022-08-20T06:20:01;101672.94;;;19.77;84.76
72921;BME280;61064;51.654;5.476;2022-08-20T06:22:27;101655.94;;;19.71;84.60
72921;BME280;61064;51.654;5.476;2022-08-20T06:24:53;101674.56;;;19.86;84.60
72921;BME280;61064;51.654;5.476;2022-08-20T06:27:20;101672.66;;;19.89;84.54
72921;BME280;61064;51.654;5.476;2022-08-20T06:29:46;101652.06;;;19.84;84.42
72921;BME280;61064;51.654;5.476;2022-08-20T06:32:12;101652.81;;;19.92;84.60
72921;BME280;61064;51.654;5.476;2022-08-20T06:34:38;101668.72;;;20.07;84.31
72921;BME280;61064;51.654;5.476;2022-08-20T06:37:13;101633.09;;;19.88;84.19
72921;BME280;61064;51.654;5.476;2022-08-20T06:39:41;101668.56;;;20.16;84.36
72921;BME280;61064;51.654;5.476;2022-08-20T06:42:07;101670.31;;;20.17;84.19
72921;BME280;61064;51.654;5.476;2022-08-20T06:44:32;101624.03;;;19.91;84.00
72921;BME280;61064;51.654;5.476;2022-08-20T06:47:04;101660.53;;;20.12;83.77
72921;BME280;61064;51.654;5.476;2022-08-20T06:49:34;101665.94;;;20.12;83.90
72921;BME280;61064;51.654;5.476;2022-08-20T06:51:59;101673.09;;;20.16;83.62
72921;BME280;61064;51.654;5.476;2022-08-20T06:54:25;101671.31;;;20.13;83.69
72921;BME280;61064;51.654;5.476;2022-08-20T06:56:53;101659.78;;;20.05;83.51
72921;BME280;61064;51.654;5.476;2022-08-20T06:59:19;101646.31;;;20.02;83.74
72921;BME280;61064;51.654;5.476;2022-08-20T07:01:53;101627.59;;;19.93;83.58
72921;BME280;61064;51.654;5.476;2022-08-20T07:04:25;101613.41;;;19.83;83.71
72921;BME280;61064;51.654;5.476;2022-08-20T07:06:53;101671.09;;;20.24;83.60
72921;BME280;61064;51.654;5.476;2022-08-20T07:09:19;101680.00;;;20.32;83.44
72921;BME280;61064;51.654;5.476;2022-08-20T07:11:46;101669.06;;;20.38;82.96
72921;BME280;61064;51.654;5.476;2022-08-20T07:14:14;101681.22;;;20.59;82.73
72921;BME280;61064;51.654;5.476;2022-08-20T07:16:40;101670.41;;;20.59;82.53
72921;BME280;61064;51.654;5.476;2022-08-20T07:19:05;101677.38;;;20.69;82.05
72921;BME280;61064;51.654;5.476;2022-08-20T07:21:33;101680.94;;;20.72;82.02
72921;BME280;61064;51.654;5.476;2022-08-20T07:23:58;101685.91;;;20.91;81.87
72921;BME280;61064;51.654;5.476;2022-08-20T07:26:24;101691.91;;;21.05;81.54
72921;BME280;61064;51.654;5.476;2022-08-20T07:28:49;101683.75;;;21.06;81.08
72921;BME280;61064;51.654;5.476;2022-08-20T07:31:15;101675.81;;;20.99;80.65
72921;BME280;61064;51.654;5.476;2022-08-20T07:33:59;101695.53;;;21.04;80.78
72921;BME280;61064;51.654;5.476;2022-08-20T07:36:25;101699.91;;;21.09;80.74
72921;BME280;61064;51.654;5.476;2022-08-20T07:38:50;101703.28;;;21.21;80.54
72921;BME280;61064;51.654;5.476;2022-08-20T07:41:17;101682.59;;;21.18;80.26
72921;BME280;61064;51.654;5.476;2022-08-20T07:43:44;101712.50;;;21.50;79.72
72921;BME280;61064;51.654;5.476;2022-08-20T07:46:11;101708.66;;;21.59;79.44
72921;BME280;61064;51.654;5.476;2022-08-20T07:48:40;101704.09;;;21.61;79.02
72921;BME280;61064;51.654;5.476;2022-08-20T07:51:07;101721.78;;;21.74;78.70
72921;BME280;61064;51.654;5.476;2022-08-20T07:53:36;101706.41;;;21.76;78.66
72921;BME280;61064;51.654;5.476;2022-08-20T07:56:07;101706.28;;;21.81;78.08
72921;BME280;61064;51.654;5.476;2022-08-20T07:58:34;101715.31;;;21.80;77.92
72921;BME280;61064;51.654;5.476;2022-08-20T08:01:01;101709.25;;;21.70;77.82
72921;BME280;61064;51.654;5.476;2022-08-20T08:03:27;101721.78;;;21.74;78.33
72921;BME280;61064;51.654;5.476;2022-08-20T08:05:54;101678.78;;;21.62;77.76
72921;BME280;61064;51.654;5.476;2022-08-20T08:08:26;101696.28;;;21.83;77.62
72921;BME280;61064;51.654;5.476;2022-08-20T08:10:55;101725.41;;;22.10;77.14
72921;BME280;61064;51.654;5.476;2022-08-20T08:13:21;101737.03;;;22.14;76.70
72921;BME280;61064;51.654;5.476;2022-08-20T08:15:52;101729.16;;;22.05;76.54
72921;BME280;61064;51.654;5.476;2022-08-20T08:18:24;101734.56;;;22.06;76.59
72921;BME280;61064;51.654;5.476;2022-08-20T08:20:51;101722.06;;;22.01;76.76
72921;BME280;61064;51.654;5.476;2022-08-20T08:23:21;101715.50;;;22.08;76.42
72921;BME280;61064;51.654;5.476;2022-08-20T08:25:47;101726.72;;;22.28;76.00
72921;BME280;61064;51.654;5.476;2022-08-20T08:28:13;101719.94;;;22.44;75.30
72921;BME280;61064;51.654;5.476;2022-08-20T08:30:40;101731.19;;;22.61;75.08
72921;BME280;61064;51.654;5.476;2022-08-20T08:33:16;101734.69;;;22.65;74.29
72921;BME280;61064;51.654;5.476;2022-08-20T08:35:57;101722.03;;;22.64;74.35
72921;BME280;61064;51.654;5.476;2022-08-20T08:38:24;101720.94;;;22.72;74.12
72921;BME280;61064;51.654;5.476;2022-08-20T08:40:55;101740.03;;;22.99;73.88
72921;BME280;61064;51.654;5.476;2022-08-20T08:43:23;101741.50;;;23.09;73.07
72921;BME280;61064;51.654;5.476;2022-08-20T08:46:03;101739.47;;;23.17;72.33
72921;BME280;61064;51.654;5.476;2022-08-20T08:48:37;101735.53;;;23.26;71.95
72921;BME280;61064;51.654;5.476;2022-08-20T08:51:05;101742.41;;;23.37;71.66
72921;BME280;61064;51.654;5.476;2022-08-20T08:53:39;101758.41;;;23.48;71.35
72921;BME280;61064;51.654;5.476;2022-08-20T08:56:07;101749.16;;;23.53;71.31
72921;BME280;61064;51.654;5.476;2022-08-20T08:58:33;101747.00;;;23.63;70.60
72921;BME280;61064;51.654;5.476;2022-08-20T09:01:11;101743.81;;;23.78;70.29
72921;BME280;61064;51.654;5.476;2022-08-20T09:03:38;101748.75;;;23.92;69.56
72921;BME280;61064;51.654;5.476;2022-08-20T09:06:04;101740.56;;;23.93;69.32
72921;BME280;61064;51.654;5.476;2022-08-20T09:08:43;101747.44;;;24.03;68.88
72921;BME280;61064;51.654;5.476;2022-08-20T09:11:12;101742.63;;;24.12;68.96
72921;BME280;61064;51.654;5.476;2022-08-20T09:13:38;101750.28;;;24.27;68.02
72921;BME280;61064;51.654;5.476;2022-08-20T09:16:03;101743.78;;;24.31;67.72
72921;BME280;61064;51.654;5.476;2022-08-20T09:18:29;101765.84;;;24.47;67.27
72921;BME280;61064;51.654;5.476;2022-08-20T09:20:54;101755.78;;;24.50;66.80
72921;BME280;61064;51.654;5.476;2022-08-20T09:23:20;101747.66;;;24.49;66.07
72921;BME280;61064;51.654;5.476;2022-08-20T09:25:45;101753.50;;;24.63;65.86
72921;BME280;61064;51.654;5.476;2022-08-20T09:28:10;101746.94;;;24.68;65.37
72921;BME280;61064;51.654;5.476;2022-08-20T09:30:36;101748.59;;;24.72;64.84
72921;BME280;61064;51.654;5.476;2022-08-20T09:33:01;101732.91;;;24.79;64.80
72921;BME280;61064;51.654;5.476;2022-08-20T09:35:27;101756.72;;;24.97;64.38
72921;BME280;61064;51.654;5.476;2022-08-20T09:37:54;101745.59;;;25.03;63.77
72921;BME280;61064;51.654;5.476;2022-08-20T09:40:19;101742.69;;;25.08;63.40
72921;BME280;61064;51.654;5.476;2022-08-20T09:42:45;101742.19;;;25.20;62.08
72921;BME280;61064;51.654;5.476;2022-08-20T09:45:11;101743.88;;;25.24;61.32
72921;BME280;61064;51.654;5.476;2022-08-20T09:47:40;101737.34;;;25.28;61.48
72921;BME280;61064;51.654;5.476;2022-08-20T09:50:07;101726.25;;;25.33;61.78
72921;BME280;61064;51.654;5.476;2022-08-20T09:52:36;101732.91;;;25.47;61.36
72921;BME280;61064;51.654;5.476;2022-08-20T09:55:13;101746.19;;;25.56;60.61
72921;BME280;61064;51.654;5.476;2022-08-20T09:57:41;101733.38;;;25.58;60.05
72921;BME280;61064;51.654;5.476;2022-08-20T10:00:08;101746.94;;;25.60;59.24
72921;BME280;61064;51.654;5.476;2022-08-20T10:02:36;101746.41;;;25.50;59.11
72921;BME280;61064;51.654;5.476;2022-08-20T10:05:01;101742.22;;;25.42;58.25
72921;BME280;61064;51.654;5.476;2022-08-20T10:07:26;101744.38;;;25.34;57.64
72921;BME280;61064;51.654;5.476;2022-08-20T10:09:52;101732.53;;;25.13;57.38
72921;BME280;61064;51.654;5.476;2022-08-20T10:12:17;101736.63;;;25.01;57.28
72921;BME280;61064;51.654;5.476;2022-08-20T10:14:44;101751.22;;;24.99;57.47
72921;BME280;61064;51.654;5.476;2022-08-20T10:17:10;101740.28;;;25.00;57.83
72921;BME280;61064;51.654;5.476;2022-08-20T10:19:35;101739.63;;;25.17;56.56
72921;BME280;61064;51.654;5.476;2022-08-20T10:22:01;101736.50;;;25.26;56.51
72921;BME280;61064;51.654;5.476;2022-08-20T10:24:27;101748.63;;;25.41;56.37
72921;BME280;61064;51.654;5.476;2022-08-20T10:26:58;101751.47;;;25.61;54.85
72921;BME280;61064;51.654;5.476;2022-08-20T10:29:26;101730.97;;;25.73;54.56
72921;BME280;61064;51.654;5.476;2022-08-20T10:31:52;101742.94;;;25.90;54.21
72921;BME280;61064;51.654;5.476;2022-08-20T10:34:19;101729.63;;;26.03;53.29
72921;BME280;61064;51.654;5.476;2022-08-20T10:36:45;101739.00;;;26.18;52.23
72921;BME280;61064;51.654;5.476;2022-08-20T10:39:12;101729.69;;;26.23;52.24
72921;BME280;61064;51.654;5.476;2022-08-20T10:41:37;101740.97;;;26.36;51.06
72921;BME280;61064;51.654;5.476;2022-08-20T10:44:03;101721.75;;;26.37;50.53
72921;BME280;61064;51.654;5.476;2022-08-20T10:46:29;101741.88;;;26.55;49.97
72921;BME280;61064;51.654;5.476;2022-08-20T10:48:54;101739.59;;;26.65;49.99
72921;BME280;61064;51.654;5.476;2022-08-20T10:51:20;101756.19;;;26.80;49.76
72921;BME280;61064;51.654;5.476;2022-08-20T10:53:45;101750.31;;;26.89;49.36
72921;BME280;61064;51.654;5.476;2022-08-20T10:56:11;101748.19;;;26.96;49.17
72921;BME280;61064;51.654;5.476;2022-08-20T10:58:36;101747.69;;;27.07;48.97
72921;BME280;61064;51.654;5.476;2022-08-20T11:01:02;101741.16;;;27.09;48.31
72921;BME280;61064;51.654;5.476;2022-08-20T11:03:27;101729.66;;;27.03;48.05
72921;BME280;61064;51.654;5.476;2022-08-20T11:05:53;101703.72;;;26.93;47.89
72921;BME280;61064;51.654;5.476;2022-08-20T11:08:20;101743.53;;;27.17;47.83
72921;BME280;61064;51.654;5.476;2022-08-20T11:10:49;101745.91;;;27.24;46.63
72921;BME280;61064;51.654;5.476;2022-08-20T11:13:14;101704.03;;;27.05;46.01
72921;BME280;61064;51.654;5.476;2022-08-20T11:15:41;101679.91;;;26.96;46.23
72921;BME280;61064;51.654;5.476;2022-08-20T11:18:08;101742.41;;;27.40;46.33
72921;BME280;61064;51.654;5.476;2022-08-20T11:20:34;101727.16;;;27.36;45.25
72921;BME280;61064;51.654;5.476;2022-08-20T11:23:00;101731.78;;;27.34;45.41
72921;BME280;61064;51.654;5.476;2022-08-20T11:25:26;101750.75;;;27.37;45.40
72921;BME280;61064;51.654;5.476;2022-08-20T11:27:54;101745.81;;;27.45;45.01
72921;BME280;61064;51.654;5.476;2022-08-20T11:30:21;101755.72;;;27.47;45.21
72921;BME280;61064;51.654;5.476;2022-08-20T11:32:47;101716.94;;;27.20;44.68
72921;BME280;61064;51.654;5.476;2022-08-20T11:35:12;101752.69;;;27.35;44.65
72921;BME280;61064;51.654;5.476;2022-08-20T11:37:38;101747.66;;;27.25;44.71
72921;BME280;61064;51.654;5.476;2022-08-20T11:40:04;101747.53;;;27.28;44.87
72921;BME280;61064;51.654;5.476;2022-08-20T11:42:29;101749.97;;;27.35;44.10
72921;BME280;61064;51.654;5.476;2022-08-20T11:44:55;101748.53;;;27.26;43.38
72921;BME280;61064;51.654;5.476;2022-08-20T11:47:26;101755.94;;;27.05;43.51
72921;BME280;61064;51.654;5.476;2022-08-20T11:49:57;101748.97;;;26.98;43.79
72921;BME280;61064;51.654;5.476;2022-08-20T11:52:24;101732.69;;;26.97;43.50
72921;BME280;61064;51.654;5.476;2022-08-20T11:54:49;101719.94;;;26.97;43.37
72921;BME280;61064;51.654;5.476;2022-08-20T11:57:23;101737.34;;;27.13;43.39
72921;BME280;61064;51.654;5.476;2022-08-20T11:59:50;101748.25;;;27.32;42.92
72921;BME280;61064;51.654;5.476;2022-08-20T12:02:19;101745.44;;;27.34;42.63
72921;BME280;61064;51.654;5.476;2022-08-20T12:04:45;101741.00;;;27.50;42.70
72921;BME280;61064;51.654;5.476;2022-08-20T12:07:12;101729.78;;;27.56;42.46
72921;BME280;61064;51.654;5.476;2022-08-20T12:09:42;101724.59;;;27.68;42.18
72921;BME280;61064;51.654;5.476;2022-08-20T12:12:07;101735.47;;;27.87;42.21
72921;BME280;61064;51.654;5.476;2022-08-20T12:14:33;101735.47;;;27.87;41.85
72921;BME280;61064;51.654;5.476;2022-08-20T12:17:07;101726.28;;;27.88;41.38
72921;BME280;61064;51.654;5.476;2022-08-20T12:19:38;101724.94;;;27.97;41.19
72921;BME280;61064;51.654;5.476;2022-08-20T12:22:04;101711.16;;;27.98;41.27
72921;BME280;61064;51.654;5.476;2022-08-20T12:24:30;101726.22;;;28.07;40.97
72921;BME280;61064;51.654;5.476;2022-08-20T12:27:11;101734.38;;;28.08;40.89
72921;BME280;61064;51.654;5.476;2022-08-20T12:29:41;101743.03;;;27.99;40.56
72921;BME280;61064;51.654;5.476;2022-08-20T12:32:07;101723.47;;;27.73;40.60
72921;BME280;61064;51.654;5.476;2022-08-20T12:34:35;101745.06;;;27.60;40.97
72921;BME280;61064;51.654;5.476;2022-08-20T12:37:03;101741.22;;;27.45;41.16
72921;BME280;61064;51.654;5.476;2022-08-20T12:39:30;101732.44;;;27.39;41.13
72921;BME280;61064;51.654;5.476;2022-08-20T12:41:58;101731.72;;;27.35;41.05
72921;BME280;61064;51.654;5.476;2022-08-20T12:44:24;101743.00;;;27.27;41.25
72921;BME280;61064;51.654;5.476;2022-08-20T12:46:50;101743.59;;;27.15;41.41
72921;BME280;61064;51.654;5.476;2022-08-20T12:49:15;101726.19;;;26.99;41.74
72921;BME280;61064;51.654;5.476;2022-08-20T12:51:40;101733.41;;;27.00;41.85
72921;BME280;61064;51.654;5.476;2022-08-20T12:54:06;101735.69;;;27.09;42.18
72921;BME280;61064;51.654;5.476;2022-08-20T12:56:31;101709.66;;;27.02;42.17